Aérodrome :
LOGIN :

S'inscrire | Disclaimer

   EN    FR    IT 

 










Légende :    VFR   VFR Marginal   IFR   IFR Intensif   IFR Très Intensif
Visi : 
Plafond : 
>= 8 km
>= 3000ft
5 à 8 km
1000 à 3000 ft
1500m à 5 km
500 à 1000 ft
800 à 1500m
200 à 500 ft
< 800m
< 200 ft
Symboles :   Orages  Brouillard  Fortes neiges  Fortes précipitations  Vent > 20 kt
SIGMETs :   Divers  Orages  Givrage  Turbulence  Onde Orograph.  Cendres Volcan.






- Altitude de l'aérodrome : 124 ft
- Code IATA : NHT


EGWU - RAF Northolt

DERNIER METAR :
  • 130950Z 26009KT CAVOK 22/09 Q1024 NOSIG RMK BLU BLU

METARs EXPIRÉS :
  • 130850Z 26008KT CAVOK 20/08 Q1024 NOSIG
  • 130750Z 26006KT CAVOK 18/08 Q1024 NOSIG RMK BLU BLU
  • 130650Z 22003KT CAVOK 16/10 Q1025 NOSIG RMK BLU BLU

TAF COR TAF EGWU
Valide du 13 à 09h jusqu'au 14 à 03h UTC


130735Z 1309/1403 24008KT 9999 FEW045
BECMG 1318/1320 BKN020
BECMG 1320/1323 BKN010
PROB40
TEMPO 1320/1401 5000 RA
PROB30
TEMPO 1322/1324 4000 -RADZ SCT006 BKN008
BECMG 1400/1402 FEW010 BKN030



MET'MAP, la Météo Aéronautique d'un coup d'oeil ! - Copyright ORBIFLY Décembre 2007 - Disclaimer

ORBIFLY MET'MAP TEAM :

Programmation & Développement : Alexandra Zaïnal
Sur une idée originale de : Baudouin d'Aumeries
Assistance à la programmation : Marc-Olivier Méhu
Soutien technique & logistique : Manuel Goepfert

Contact : metmap@orbifly.com




SOURCES & CREDITS :

   NOAA